Time;durP1;ratioP1;P1;durP2;ratioP2;P2;SDS_P1;SDS_P2;PMS_P1;PMS_P2;Temp;Humidity;BMP_temperature;BMP_pressure;BME280_temperature;BME280_humidity;BME280_pressure;Samples;Min_cycle;Max_cycle;Signal;HPM_P1;HPM_P2
2023/04/16 05:08:30;;;;;;;;;;;;;;;;;;5016605;28;20486;-43
2023/04/16 05:10:56;;;;;;;;;;;;;;;;;;5026615;28;19929;-44
2023/04/16 05:13:21;;;;;;;;;;;;;;;;;;5009751;28;19967;-45
2023/04/16 05:15:47;;;;;;;;;;;;;;;;;;5010309;28;19947;-44
2023/04/16 05:18:13;;;;;;;;;;;;;;;;;;5010422;28;19913;-44
2023/04/16 05:20:39;;;;;;;;;;;;;;;;;;5010196;28;19925;-43
2023/04/16 05:23:05;;;;;;;;;;;;;;;;;;5010215;28;19916;-43
2023/04/16 05:25:31;;;;;;;;;;;;;;;;;;5010151;28;20028;-45
2023/04/16 05:27:57;;;;;;;;;;;;;;;;;;5009701;28;19909;-45
2023/04/16 05:30:24;;;;;;;;;;;;;;;;;;5010255;28;19952;-45
2023/04/16 05:32:50;;;;;;;;;;;;;;;;;;5010102;28;20411;-44
2023/04/16 05:35:16;;;;;;;;;;;;;;;;;;5010220;28;19909;-43
2023/04/16 05:37:42;;;;;;;;;;;;;;;;;;5008572;28;19919;-43
2023/04/16 05:40:08;;;;;;;;;;;;;;;;;;5009931;28;20355;-43
2023/04/16 05:42:34;;;;;;;;;;;;;;;;;;5009717;28;20338;-45
2023/04/16 05:45:00;;;;;;;;;;;;;;;;;;4992104;28;19928;-45
2023/04/16 05:47:25;;;;;;;;;;;;;;;;;;5018505;28;19905;-45
2023/04/16 05:49:51;;;;;;;;;;;;;;;;;;5012669;28;20152;-44
2023/04/16 05:52:17;;;;;;;;;;;;;;;;;;5012911;28;19932;-44
2023/04/16 05:54:43;;;;;;;;;;;;;;;;;;5008838;28;20002;-43
2023/04/16 05:57:09;;;;;;;;;;;;;;;;;;5010536;28;19928;-44
2023/04/16 05:59:36;;;;;;;;;;;;;;;;;;5010258;28;20158;-44
2023/04/16 06:02:02;;;;;;;;;;;;;;;;;;5011092;28;20016;-45
2023/04/16 06:04:29;;;;;;;;;;;;;;;;;;5011335;28;19909;-47
2023/04/16 06:06:55;;;;;;;;;;;;;;;;;;5009019;28;20003;-44
2023/04/16 06:09:23;;;;;;;;;;;;;;;;;;5010350;28;20044;-43
2023/04/16 06:11:49;;;;;;;;;;;;;;;;;;4992637;28;20503;-43
2023/04/16 06:14:16;;;;;;;;;;;;;;;;;;4991028;28;20392;-44
2023/04/16 06:16:42;;;;;;;;;;;;;;;;;;4991352;28;19909;-45
2023/04/16 06:19:08;;;;;;;;;;;;;;;;;;4991011;28;19914;-45
2023/04/16 06:21:34;;;;;;;;;;;;;;;;;;4990479;28;19909;-43
2023/04/16 06:24:00;;;;;;;;;;;;;;;;;;5010054;28;19913;-44
2023/04/16 06:26:26;;;;;;;;;;;;;;;;;;5010769;28;19905;-45
2023/04/16 06:28:52;;;;;;;;;;;;;;;;;;4994244;28;19928;-44
2023/04/16 06:31:18;;;;;;;;;;;;;;;;;;4991049;28;19996;-43
2023/04/16 06:33:44;;;;;;;;;;;;;;;;;;4991315;28;19905;-45
2023/04/16 06:36:10;;;;;;;;;;;;;;;;;;4991085;28;19991;-44
2023/04/16 06:38:36;;;;;;;;;;;;;;;;;;4990970;28;20328;-42
2023/04/16 06:41:02;;;;;;;;;;;;;;;;;;4991180;28;19906;-44
2023/04/16 06:43:29;;;;;;;;;;;;;;;;;;4990807;28;19956;-46
2023/04/16 06:45:55;;;;;;;;;;;;;;;;;;4990689;28;20397;-44
2023/04/16 06:48:21;;;;;;;;;;;;;;;;;;4990416;28;19913;-43
2023/04/16 06:50:47;;;;;;;;;;;;;;;;;;4990831;28;19906;-45
2023/04/16 06:53:13;;;;;;;;;;;;;;;;;;4988522;28;19913;-45
2023/04/16 06:55:39;;;;;;;;;;;;;;;;;;4989358;28;19910;-43
2023/04/16 06:58:05;;;;;;;;;;;;;;;;;;4989085;28;19956;-45
2023/04/16 07:00:31;;;;;;;;;;;;;;;;;;4988976;28;20300;-43
2023/04/16 07:02:58;;;;;;;;;;;;;;;;;;4987588;28;20383;-46
2023/04/16 07:05:25;;;;;;;;;;;;;;;;;;4989864;28;20003;-44
2023/04/16 07:07:50;;;;;;;;;;;;;;;;;;4983169;28;19946;-45
2023/04/16 07:10:17;;;;;;;;;;;;;;;;;;4984695;28;19914;-45
2023/04/16 07:12:43;;;;;;;;;;;;;;;;;;4988349;28;19917;-45
2023/04/16 07:15:08;;;;;;;;;;;;;;;;;;4989250;28;19909;-46
2023/04/16 07:17:34;;;;;;;;;;;;;;;;;;4988690;28;19909;-44
2023/04/16 07:20:00;;;;;;;;;;;;;;;;;;4982169;28;19929;-44
2023/04/16 07:22:26;;;;;;;;;;;;;;;;;;4989157;28;19932;-43
2023/04/16 07:24:52;;;;;;;;;;;;;;;;;;4989506;28;19996;-47
2023/04/16 07:27:18;;;;;;;;;;;;;;;;;;4989075;28;19964;-45
2023/04/16 07:29:49;;;;;;;;;;;;;;;;;;5006942;28;19905;-46
2023/04/16 07:32:15;;;;;;;;;;;;;;;;;;4991200;28;20308;-45
2023/04/16 07:34:41;;;;;;;;;;;;;;;;;;4989362;28;19914;-45
2023/04/16 07:37:07;;;;;;;;;;;;;;;;;;4989025;28;19952;-47
2023/04/16 07:39:32;;;;;;;;;;;;;;;;;;4989327;28;19964;-45
2023/04/16 07:41:58;;;;;;;;;;;;;;;;;;4989680;28;19956;-46
2023/04/16 07:44:24;;;;;;;;;;;;;;;;;;4988858;28;19905;-46
2023/04/16 07:46:50;;;;;;;;;;;;;;;;;;4988986;28;19972;-45
2023/04/16 07:49:16;;;;;;;;;;;;;;;;;;4988872;28;19916;-45
2023/04/16 07:51:42;;;;;;;;;;;;;;;;;;4988963;28;19996;-45
2023/04/16 07:54:08;;;;;;;;;;;;;;;;;;4987365;28;19914;-46
2023/04/16 07:56:34;;;;;;;;;;;;;;;;;;4985280;28;20388;-45
2023/04/16 07:59:00;;;;;;;;;;;;;;;;;;4987384;28;19914;-45
2023/04/16 08:01:26;;;;;;;;;;;;;;;;;;4989989;28;19925;-45
2023/04/16 08:03:52;;;;;;;;;;;;;;;;;;4992801;28;20452;-44
2023/04/16 08:06:18;;;;;;;;;;;;;;;;;;5011169;28;20043;-45
2023/04/16 08:08:44;;;;;;;;;;;;;;;;;;4995681;28;19953;-45
2023/04/16 08:11:10;;;;;;;;;;;;;;;;;;4991875;28;19913;-45
2023/04/16 08:13:36;;;;;;;;;;;;;;;;;;4991374;28;19933;-44
2023/04/16 08:16:01;;;;;;;;;;;;;;;;;;4993161;28;20000;-44
2023/04/16 08:18:27;;;;;;;;;;;;;;;;;;4992476;28;20440;-45
2023/04/16 08:20:53;;;;;;;;;;;;;;;;;;4991871;28;19906;-44
2023/04/16 08:23:19;;;;;;;;;;;;;;;;;;4991539;28;19906;-44
2023/04/16 08:25:45;;;;;;;;;;;;;;;;;;4989799;28;20383;-43
2023/04/16 08:28:11;;;;;;;;;;;;;;;;;;4993213;28;20037;-44
2023/04/16 08:30:37;;;;;;;;;;;;;;;;;;4990493;28;20068;-44
2023/04/16 08:33:03;;;;;;;;;;;;;;;;;;4991122;28;19906;-45
2023/04/16 08:35:30;;;;;;;;;;;;;;;;;;4991575;28;19906;-44
2023/04/16 08:37:57;;;;;;;;;;;;;;;;;;4990930;28;19909;-44
2023/04/16 08:40:24;;;;;;;;;;;;;;;;;;4991058;28;19932;-45
2023/04/16 08:42:50;;;;;;;;;;;;;;;;;;4989554;28;20029;-44
2023/04/16 08:45:16;;;;;;;;;;;;;;;;;;4989370;28;19910;-44
2023/04/16 08:47:42;;;;;;;;;;;;;;;;;;4990725;28;19910;-44
2023/04/16 08:50:10;;;;;;;;;;;;;;;;;;4990919;28;19914;-43
2023/04/16 08:52:35;;;;;;;;;;;;;;;;;;4990901;28;19909;-45
2023/04/16 08:55:01;;;;;;;;;;;;;;;;;;4989933;28;20392;-44
2023/04/16 08:57:27;;;;;;;;;;;;;;;;;;4989466;28;19979;-45
2023/04/16 08:59:53;;;;;;;;;;;;;;;;;;4988154;28;19917;-44
2023/04/16 09:02:19;;;;;;;;;;;;;;;;;;4976252;28;19910;-44
2023/04/16 09:04:45;;;;;;;;;;;;;;;;;;4979394;28;20281;-45
2023/04/16 09:07:11;;;;;;;;;;;;;;;;;;4991927;28;19906;-46
2023/04/16 09:09:37;;;;;;;;;;;;;;;;;;4990348;28;19909;-44
2023/04/16 09:12:03;;;;;;;;;;;;;;;;;;5009540;28;19967;-48
2023/04/16 09:14:29;;;;;;;;;;;;;;;;;;5010412;28;20320;-44
2023/04/16 09:16:56;;;;;;;;;;;;;;;;;;5008552;28;19905;-45
2023/04/16 09:19:22;;;;;;;;;;;;;;;;;;4990538;28;20450;-48
2023/04/16 09:21:48;;;;;;;;;;;;;;;;;;4990745;28;19910;-46
2023/04/16 09:24:14;;;;;;;;;;;;;;;;;;5010663;28;19924;-44
2023/04/16 09:26:40;;;;;;;;;;;;;;;;;;4981399;28;19917;-44
2023/04/16 09:29:08;;;;;;;;;;;;;;;;;;4976765;28;20403;-44
2023/04/16 09:31:34;;;;;;;;;;;;;;;;;;4989219;28;19928;-44
2023/04/16 09:34:00;;;;;;;;;;;;;;;;;;4988888;28;19906;-45
2023/04/16 09:36:26;;;;;;;;;;;;;;;;;;4972450;28;19914;-45
2023/04/16 09:38:52;;;;;;;;;;;;;;;;;;4969490;28;19954;-44
2023/04/16 09:41:18;;;;;;;;;;;;;;;;;;4981046;28;20003;-44
2023/04/16 09:43:44;;;;;;;;;;;;;;;;;;4989389;28;19912;-44
2023/04/16 09:46:11;;;;;;;;;;;;;;;;;;4989345;28;19910;-46
2023/04/16 09:48:37;;;;;;;;;;;;;;;;;;5005309;28;19910;-45
2023/04/16 09:51:03;;;;;;;;;;;;;;;;;;5008460;28;19960;-45
2023/04/16 09:53:29;;;;;;;;;;;;;;;;;;5008247;28;19905;-46
2023/04/16 09:55:56;;;;;;;;;;;;;;;;;;5008517;28;19905;-44
2023/04/16 09:58:23;;;;;;;;;;;;;;;;;;5008036;28;19989;-45
2023/04/16 10:00:49;;;;;;;;;;;;;;;;;;4998340;28;19935;-45
2023/04/16 10:03:16;;;;;;;;;;;;;;;;;;4988677;28;19912;-43
2023/04/16 10:05:42;;;;;;;;;;;;;;;;;;4989023;28;19920;-46
2023/04/16 10:08:08;;;;;;;;;;;;;;;;;;4988424;28;19963;-45
2023/04/16 10:10:34;;;;;;;;;;;;;;;;;;4988161;28;19918;-47
2023/04/16 10:13:01;;;;;;;;;;;;;;;;;;4988041;28;19905;-44
2023/04/16 10:15:27;;;;;;;;;;;;;;;;;;4988450;28;19916;-45
2023/04/16 10:17:53;;;;;;;;;;;;;;;;;;4988775;28;19906;-45
2023/04/16 10:20:19;;;;;;;;;;;;;;;;;;4987738;28;19922;-47
2023/04/16 10:22:44;;;;;;;;;;;;;;;;;;4988249;28;20091;-47
2023/04/16 10:25:10;;;;;;;;;;;;;;;;;;5005969;28;19906;-46
2023/04/16 10:27:37;;;;;;;;;;;;;;;;;;5007684;28;19948;-45
2023/04/16 10:30:03;;;;;;;;;;;;;;;;;;5007646;28;19909;-44
2023/04/16 10:32:30;;;;;;;;;;;;;;;;;;5007582;28;19906;-44
2023/04/16 10:34:56;;;;;;;;;;;;;;;;;;4984985;28;19913;-44
2023/04/16 10:37:22;;;;;;;;;;;;;;;;;;4984857;28;19916;-45
2023/04/16 10:39:48;;;;;;;;;;;;;;;;;;4986948;28;20529;-44
2023/04/16 10:42:14;;;;;;;;;;;;;;;;;;4988636;28;19933;-44
2023/04/16 10:44:40;;;;;;;;;;;;;;;;;;4989193;28;19917;-45
2023/04/16 10:47:06;;;;;;;;;;;;;;;;;;4987148;28;19992;-47
2023/04/16 10:49:32;;;;;;;;;;;;;;;;;;4994849;28;20005;-45
2023/04/16 10:51:58;;;;;;;;;;;;;;;;;;5001323;28;19914;-45
2023/04/16 10:54:25;;;;;;;;;;;;;;;;;;4986437;28;19971;-45
2023/04/16 10:56:51;;;;;;;;;;;;;;;;;;4988198;28;19910;-45
2023/04/16 10:59:17;;;;;;;;;;;;;;;;;;4983313;28;19924;-45
2023/04/16 11:01:42;;;;;;;;;;;;;;;;;;4986586;28;19917;-48
2023/04/16 11:04:09;;;;;;;;;;;;;;;;;;4988452;28;19913;-48
2023/04/16 11:06:35;;;;;;;;;;;;;;;;;;4989136;28;19916;-47
2023/04/16 11:09:01;;;;;;;;;;;;;;;;;;4987196;28;20343;-45
2023/04/16 11:11:27;;;;;;;;;;;;;;;;;;4986973;28;20012;-46
2023/04/16 11:13:53;;;;;;;;;;;;;;;;;;4986741;28;19913;-46
2023/04/16 11:16:19;;;;;;;;;;;;;;;;;;4987647;28;19910;-44
2023/04/16 11:18:45;;;;;;;;;;;;;;;;;;4987274;28;19906;-45
2023/04/16 11:21:11;;;;;;;;;;;;;;;;;;4988245;28;20395;-47
2023/04/16 11:23:37;;;;;;;;;;;;;;;;;;4987214;28;19914;-44
2023/04/16 11:26:03;;;;;;;;;;;;;;;;;;4966888;28;19914;-44
2023/04/16 11:28:29;;;;;;;;;;;;;;;;;;4984571;28;19910;-45
2023/04/16 11:30:55;;;;;;;;;;;;;;;;;;4986152;28;19971;-45
2023/04/16 11:33:21;;;;;;;;;;;;;;;;;;4971755;28;19977;-44
2023/04/16 11:35:49;;;;;;;;;;;;;;;;;;4981567;28;19942;-44
2023/04/16 11:38:15;;;;;;;;;;;;;;;;;;4988365;28;20027;-46
2023/04/16 11:40:41;;;;;;;;;;;;;;;;;;4988088;28;20300;-44
2023/04/16 11:43:07;;;;;;;;;;;;;;;;;;4988136;28;19913;-45
2023/04/16 11:45:33;;;;;;;;;;;;;;;;;;4987784;28;19991;-45
2023/04/16 11:47:59;;;;;;;;;;;;;;;;;;4987300;28;19914;-44
2023/04/16 11:50:25;;;;;;;;;;;;;;;;;;4988115;28;19906;-46
2023/04/16 11:52:50;;;;;;;;;;;;;;;;;;4987812;28;19933;-44
2023/04/16 11:55:16;;;;;;;;;;;;;;;;;;4987820;28;19930;-43
2023/04/16 11:57:42;;;;;;;;;;;;;;;;;;4987927;28;19973;-44
2023/04/16 12:00:14;;;;;;;;;;;;;;;;;;4987892;28;19922;-44
2023/04/16 12:02:40;;;;;;;;;;;;;;;;;;4976220;28;19913;-45
2023/04/16 12:05:07;;;;;;;;;;;;;;;;;;4988045;28;19920;-46
2023/04/16 12:07:33;;;;;;;;;;;;;;;;;;4987750;28;19948;-45
2023/04/16 12:09:59;;;;;;;;;;;;;;;;;;4986797;28;20403;-44
2023/04/16 12:12:25;;;;;;;;;;;;;;;;;;4986210;28;19913;-45
2023/04/16 12:14:51;;;;;;;;;;;;;;;;;;4987135;28;19906;-47
2023/04/16 12:17:17;;;;;;;;;;;;;;;;;;4983457;28;19914;-45
2023/04/16 12:19:43;;;;;;;;;;;;;;;;;;4985971;28;19913;-45
2023/04/16 12:22:09;;;;;;;;;;;;;;;;;;4987608;28;19909;-46
2023/04/16 12:24:36;;;;;;;;;;;;;;;;;;4987813;28;19909;-45
2023/04/16 12:27:05;;;;;;;;;;;;;;;;;;4987453;28;19916;-44
2023/04/16 12:29:31;;;;;;;;;;;;;;;;;;4987708;28;19959;-44
2023/04/16 12:31:57;;;;;;;;;;;;;;;;;;4987914;28;20506;-45
2023/04/16 12:34:23;;;;;;;;;;;;;;;;;;4982967;28;19910;-43
2023/04/16 12:36:50;;;;;;;;;;;;;;;;;;4987668;28;19913;-45
2023/04/16 12:39:16;;;;;;;;;;;;;;;;;;4987234;28;19976;-43
2023/04/16 12:41:42;;;;;;;;;;;;;;;;;;4987712;28;19949;-44
2023/04/16 12:44:10;;;;;;;;;;;;;;;;;;4983011;28;19944;-45
2023/04/16 12:46:36;;;;;;;;;;;;;;;;;;4986799;28;20328;-46
2023/04/16 12:49:02;;;;;;;;;;;;;;;;;;4995151;28;19914;-45
2023/04/16 12:51:28;;;;;;;;;;;;;;;;;;4999095;28;20008;-46
2023/04/16 12:53:54;;;;;;;;;;;;;;;;;;4999391;28;19910;-47
2023/04/16 12:56:20;;;;;;;;;;;;;;;;;;4998393;28;19905;-47
2023/04/16 12:58:49;;;;;;;;;;;;;;;;;;4996741;28;20285;-43
2023/04/16 13:01:15;;;;;;;;;;;;;;;;;;5000978;28;19913;-48
2023/04/16 13:03:41;;;;;;;;;;;;;;;;;;4998856;28;19905;-45
2023/04/16 13:06:07;;;;;;;;;;;;;;;;;;4995203;28;19910;-45
2023/04/16 13:08:33;;;;;;;;;;;;;;;;;;4997888;28;20012;-46
2023/04/16 13:10:59;;;;;;;;;;;;;;;;;;4999553;28;19917;-47
2023/04/16 13:13:25;;;;;;;;;;;;;;;;;;4998166;28;19914;-46
2023/04/16 13:15:51;;;;;;;;;;;;;;;;;;4997201;28;19910;-46
2023/04/16 13:18:16;;;;;;;;;;;;;;;;;;4993654;28;19909;-46
2023/04/16 13:20:42;;;;;;;;;;;;;;;;;;4976550;28;20297;-45
2023/04/16 13:23:08;;;;;;;;;;;;;;;;;;4976296;28;20024;-45
2023/04/16 13:25:34;;;;;;;;;;;;;;;;;;4994771;28;19909;-46
2023/04/16 13:28:00;;;;;;;;;;;;;;;;;;4994304;28;19917;-48
2023/04/16 13:30:28;;;;;;;;;;;;;;;;;;4999149;28;19909;-45
2023/04/16 13:32:54;;;;;;;;;;;;;;;;;;4979893;28;19914;-46
2023/04/16 13:35:20;;;;;;;;;;;;;;;;;;4994110;28;19916;-44
2023/04/16 13:37:45;;;;;;;;;;;;;;;;;;4993483;28;19922;-45
2023/04/16 13:40:11;;;;;;;;;;;;;;;;;;4994123;28;19989;-44
2023/04/16 13:42:37;;;;;;;;;;;;;;;;;;4976681;28;19945;-46
2023/04/16 13:45:03;;;;;;;;;;;;;;;;;;4990029;28;19936;-45
2023/04/16 13:47:29;;;;;;;;;;;;;;;;;;4991705;28;19968;-46
2023/04/16 13:49:55;;;;;;;;;;;;;;;;;;4994737;28;19944;-46
2023/04/16 13:52:22;;;;;;;;;;;;;;;;;;4996293;28;19909;-45
2023/04/16 13:54:48;;;;;;;;;;;;;;;;;;4997287;28;20000;-46
2023/04/16 13:57:14;;;;;;;;;;;;;;;;;;4991679;28;20020;-47
2023/04/16 13:59:40;;;;;;;;;;;;;;;;;;4975361;28;19937;-44
2023/04/16 14:02:06;;;;;;;;;;;;;;;;;;4993169;28;20512;-46
2023/04/16 14:04:32;;;;;;;;;;;;;;;;;;4993520;28;20049;-44
2023/04/16 14:06:58;;;;;;;;;;;;;;;;;;4994853;28;20339;-47
2023/04/16 14:09:24;;;;;;;;;;;;;;;;;;4994990;28;19996;-46
2023/04/16 14:11:50;;;;;;;;;;;;;;;;;;5004453;28;19913;-46
2023/04/16 14:14:16;;;;;;;;;;;;;;;;;;5013396;28;19914;-45
2023/04/16 14:16:42;;;;;;;;;;;;;;;;;;5014519;28;19917;-45
2023/04/16 14:19:09;;;;;;;;;;;;;;;;;;5013654;28;19971;-43
2023/04/16 14:21:35;;;;;;;;;;;;;;;;;;5012945;28;19932;-44
2023/04/16 14:24:01;;;;;;;;;;;;;;;;;;5012084;28;19909;-43
2023/04/16 14:26:27;;;;;;;;;;;;;;;;;;5010361;28;19917;-42
2023/04/16 14:28:53;;;;;;;;;;;;;;;;;;5011979;28;19915;-44
2023/04/16 14:31:20;;;;;;;;;;;;;;;;;;5008927;28;19916;-44
2023/04/16 14:33:46;;;;;;;;;;;;;;;;;;5012625;28;19909;-45
2023/04/16 14:36:12;;;;;;;;;;;;;;;;;;5017130;28;19916;-46
2023/04/16 14:38:38;;;;;;;;;;;;;;;;;;5012890;28;19939;-45
2023/04/16 14:41:04;;;;;;;;;;;;;;;;;;5012692;28;19937;-44
2023/04/16 14:43:31;;;;;;;;;;;;;;;;;;5014703;28;19909;-45
2023/04/16 14:45:57;;;;;;;;;;;;;;;;;;5011842;28;19924;-44
2023/04/16 14:48:23;;;;;;;;;;;;;;;;;;5013592;28;20359;-45
2023/04/16 14:50:49;;;;;;;;;;;;;;;;;;5013110;28;19913;-45
2023/04/16 14:53:15;;;;;;;;;;;;;;;;;;5012028;28;19916;-44
2023/04/16 14:55:41;;;;;;;;;;;;;;;;;;5014802;28;19936;-43
2023/04/16 14:58:07;;;;;;;;;;;;;;;;;;5014615;28;20491;-43
2023/04/16 15:00:33;;;;;;;;;;;;;;;;;;5010474;28;19967;-45
2023/04/16 15:02:59;;;;;;;;;;;;;;;;;;5010889;28;19924;-44
2023/04/16 15:05:26;;;;;;;;;;;;;;;;;;5003638;28;20376;-44
2023/04/16 15:07:52;;;;;;;;;;;;;;;;;;5004924;28;20418;-46
2023/04/16 15:10:18;;;;;;;;;;;;;;;;;;4996747;28;19922;-45
2023/04/16 15:12:44;;;;;;;;;;;;;;;;;;4988451;28;20415;-43
2023/04/16 15:15:10;;;;;;;;;;;;;;;;;;4987439;28;19913;-43
2023/04/16 15:17:36;;;;;;;;;;;;;;;;;;4968051;28;20694;-44
2023/04/16 15:20:06;;;;;;;;;;;;;;;;;;4985560;28;19913;-44
2023/04/16 15:22:32;;;;;;;;;;;;;;;;;;4968512;28;19949;-44
2023/04/16 15:24:58;;;;;;;;;;;;;;;;;;4985912;28;19968;-45
2023/04/16 15:27:24;;;;;;;;;;;;;;;;;;4986497;28;19916;-44
2023/04/16 15:29:52;;;;;;;;;;;;;;;;;;4987082;28;20044;-45
2023/04/16 15:32:18;;;;;;;;;;;;;;;;;;4989311;28;20605;-44
2023/04/16 15:34:45;;;;;;;;;;;;;;;;;;4991055;28;19956;-43
2023/04/16 15:37:12;;;;;;;;;;;;;;;;;;4988177;28;19910;-45
2023/04/16 15:39:38;;;;;;;;;;;;;;;;;;4985657;28;19921;-45
2023/04/16 15:42:04;;;;;;;;;;;;;;;;;;4985620;28;19910;-45
2023/04/16 15:44:30;;;;;;;;;;;;;;;;;;4983417;28;19909;-44
2023/04/16 15:46:56;;;;;;;;;;;;;;;;;;4985901;28;19906;-44
2023/04/16 15:49:23;;;;;;;;;;;;;;;;;;4984393;28;20385;-44
2023/04/16 15:51:49;;;;;;;;;;;;;;;;;;4985597;28;19917;-44
2023/04/16 15:54:17;;;;;;;;;;;;;;;;;;4985210;28;19956;-44
2023/04/16 15:56:43;;;;;;;;;;;;;;;;;;4984834;28;19910;-44
2023/04/16 15:59:08;;;;;;;;;;;;;;;;;;4984084;28;20597;-43
2023/04/16 16:01:35;;;;;;;;;;;;;;;;;;4984032;28;20769;-43
2023/04/16 16:04:01;;;;;;;;;;;;;;;;;;4984335;28;20471;-43
2023/04/16 16:06:28;;;;;;;;;;;;;;;;;;4983610;28;20485;-43
2023/04/16 16:08:54;;;;;;;;;;;;;;;;;;4982502;28;19955;-43
2023/04/16 16:11:20;;;;;;;;;;;;;;;;;;4990864;28;19917;-45
2023/04/16 16:13:46;;;;;;;;;;;;;;;;;;5004261;28;19909;-45
2023/04/16 16:16:14;;;;;;;;;;;;;;;;;;5004505;28;19910;-43
2023/04/16 16:18:40;;;;;;;;;;;;;;;;;;4998290;28;19921;-44
2023/04/16 16:21:06;;;;;;;;;;;;;;;;;;5004342;28;19917;-46
2023/04/16 16:23:32;;;;;;;;;;;;;;;;;;5007217;28;19913;-45
2023/04/16 16:25:59;;;;;;;;;;;;;;;;;;5007105;28;19914;-46
2023/04/16 16:28:26;;;;;;;;;;;;;;;;;;5008291;28;19917;-44
2023/04/16 16:30:54;;;;;;;;;;;;;;;;;;5007136;28;19916;-44
2023/04/16 16:33:20;;;;;;;;;;;;;;;;;;5002106;28;20634;-42
2023/04/16 16:35:46;;;;;;;;;;;;;;;;;;5008079;28;19914;-42
2023/04/16 16:38:12;;;;;;;;;;;;;;;;;;5008673;28;19913;-43
2023/04/16 16:40:38;;;;;;;;;;;;;;;;;;5006869;28;19913;-43
2023/04/16 16:43:04;;;;;;;;;;;;;;;;;;5008401;28;19917;-42
2023/04/16 16:45:30;;;;;;;;;;;;;;;;;;5007930;28;19913;-44
2023/04/16 16:48:02;;;;;;;;;;;;;;;;;;5006129;28;20324;-44
2023/04/16 16:50:28;;;;;;;;;;;;;;;;;;4999184;28;19923;-43
2023/04/16 16:52:54;;;;;;;;;;;;;;;;;;5004812;28;19909;-43
2023/04/16 16:55:20;;;;;;;;;;;;;;;;;;5007197;28;20575;-43
2023/04/16 16:57:47;;;;;;;;;;;;;;;;;;5008351;28;19913;-42
2023/04/16 17:00:14;;;;;;;;;;;;;;;;;;5007724;28;19913;-42
2023/04/16 17:02:40;;;;;;;;;;;;;;;;;;5007470;28;19996;-46
2023/04/16 17:05:06;;;;;;;;;;;;;;;;;;5007349;28;20004;-44
2023/04/16 17:07:32;;;;;;;;;;;;;;;;;;5007063;28;20307;-44
2023/04/16 17:09:58;;;;;;;;;;;;;;;;;;5004199;28;20000;-45
2023/04/16 17:12:25;;;;;;;;;;;;;;;;;;4972569;28;19957;-42
2023/04/16 17:14:51;;;;;;;;;;;;;;;;;;4987990;28;19920;-42
2023/04/16 17:17:17;;;;;;;;;;;;;;;;;;4969404;28;19906;-44
2023/04/16 17:19:43;;;;;;;;;;;;;;;;;;4987763;28;20662;-43
2023/04/16 17:22:09;;;;;;;;;;;;;;;;;;4986812;28;19917;-43
2023/04/16 17:24:35;;;;;;;;;;;;;;;;;;4987465;28;19910;-42
2023/04/16 17:27:00;;;;;;;;;;;;;;;;;;4987917;28;19914;-44
2023/04/16 17:29:26;;;;;;;;;;;;;;;;;;4987061;28;20304;-44
2023/04/16 17:31:52;;;;;;;;;;;;;;;;;;4987093;28;19968;-44
2023/04/16 17:34:19;;;;;;;;;;;;;;;;;;4986803;28;19916;-43
2023/04/16 17:36:51;;;;;;;;;;;;;;;;;;4987824;28;19917;-43
2023/04/16 17:39:17;;;;;;;;;;;;;;;;;;4986977;28;19920;-45
2023/04/16 17:41:42;;;;;;;;;;;;;;;;;;4983223;28;19910;-43
2023/04/16 17:44:08;;;;;;;;;;;;;;;;;;4986231;28;19916;-45
2023/04/16 17:46:35;;;;;;;;;;;;;;;;;;4987237;28;19910;-44
2023/04/16 17:49:00;;;;;;;;;;;;;;;;;;4986131;28;20419;-44
2023/04/16 17:51:26;;;;;;;;;;;;;;;;;;4986443;28;19913;-43
2023/04/16 17:53:52;;;;;;;;;;;;;;;;;;4986778;28;19933;-47
2023/04/16 17:56:18;;;;;;;;;;;;;;;;;;4986509;28;19946;-43
2023/04/16 17:58:45;;;;;;;;;;;;;;;;;;4986903;28;19910;-43
2023/04/16 18:01:11;;;;;;;;;;;;;;;;;;4986731;28;19968;-45
2023/04/16 18:03:37;;;;;;;;;;;;;;;;;;4985946;28;20423;-44
2023/04/16 18:06:03;;;;;;;;;;;;;;;;;;4985935;28;19916;-46
2023/04/16 18:08:28;;;;;;;;;;;;;;;;;;4986346;28;19909;-45
2023/04/16 18:10:55;;;;;;;;;;;;;;;;;;4985439;28;20226;-44
2023/04/16 18:13:21;;;;;;;;;;;;;;;;;;4985833;28;19920;-45
2023/04/16 18:15:47;;;;;;;;;;;;;;;;;;4968652;28;19936;-43
2023/04/16 18:18:13;;;;;;;;;;;;;;;;;;4986783;28;19910;-48
2023/04/16 18:20:39;;;;;;;;;;;;;;;;;;4985422;28;19921;-43
2023/04/16 18:23:06;;;;;;;;;;;;;;;;;;4968035;28;20373;-46
2023/04/16 18:25:32;;;;;;;;;;;;;;;;;;4986164;28;19921;-46
2023/04/16 18:27:58;;;;;;;;;;;;;;;;;;4985871;28;20352;-43
2023/04/16 18:30:24;;;;;;;;;;;;;;;;;;4985436;28;20404;-44
2023/04/16 18:32:51;;;;;;;;;;;;;;;;;;4986334;28;19916;-43
2023/04/16 18:35:17;;;;;;;;;;;;;;;;;;4985888;28;20296;-45
2023/04/16 18:37:43;;;;;;;;;;;;;;;;;;4986217;28;19917;-43
2023/04/16 18:40:09;;;;;;;;;;;;;;;;;;4986122;28;19918;-43
2023/04/16 18:42:36;;;;;;;;;;;;;;;;;;4985830;28;19909;-42
2023/04/16 18:45:02;;;;;;;;;;;;;;;;;;4984895;28;19910;-43
2023/04/16 18:47:28;;;;;;;;;;;;;;;;;;4986101;28;19913;-43
2023/04/16 18:49:54;;;;;;;;;;;;;;;;;;4985927;28;19967;-44
2023/04/16 18:52:20;;;;;;;;;;;;;;;;;;4985809;28;20289;-47
2023/04/16 18:54:46;;;;;;;;;;;;;;;;;;4986465;28;20228;-43
2023/04/16 18:57:12;;;;;;;;;;;;;;;;;;4986994;28;20392;-43
2023/04/16 18:59:39;;;;;;;;;;;;;;;;;;4968243;28;19917;-44
2023/04/16 19:02:04;;;;;;;;;;;;;;;;;;4985402;28;19910;-45
2023/04/16 19:04:30;;;;;;;;;;;;;;;;;;4967680;28;19916;-43
2023/04/16 19:06:56;;;;;;;;;;;;;;;;;;4985792;28;19909;-46
2023/04/16 19:09:22;;;;;;;;;;;;;;;;;;4968042;28;19910;-45
2023/04/16 19:11:49;;;;;;;;;;;;;;;;;;5000729;28;20366;-45
2023/04/16 19:14:15;;;;;;;;;;;;;;;;;;5005786;28;20320;-46
2023/04/16 19:16:42;;;;;;;;;;;;;;;;;;5005833;28;19913;-45
2023/04/16 19:19:08;;;;;;;;;;;;;;;;;;5005212;28;19936;-48
2023/04/16 19:21:34;;;;;;;;;;;;;;;;;;5003639;28;19917;-46
2023/04/16 19:24:01;;;;;;;;;;;;;;;;;;5005606;28;20297;-43
2023/04/16 19:26:27;;;;;;;;;;;;;;;;;;5005037;28;19914;-44
2023/04/16 19:28:54;;;;;;;;;;;;;;;;;;5004892;28;19916;-46
2023/04/16 19:31:21;;;;;;;;;;;;;;;;;;5004906;28;19912;-44
2023/04/16 19:33:46;;;;;;;;;;;;;;;;;;5005120;28;19999;-44
2023/04/16 19:36:12;;;;;;;;;;;;;;;;;;5005505;28;20021;-45
2023/04/16 19:38:38;;;;;;;;;;;;;;;;;;5004879;28;19919;-45
2023/04/16 19:41:05;;;;;;;;;;;;;;;;;;5005163;28;19914;-45
2023/04/16 19:43:31;;;;;;;;;;;;;;;;;;5004917;28;20376;-45
2023/04/16 19:45:57;;;;;;;;;;;;;;;;;;5005560;28;19920;-47
2023/04/16 19:48:24;;;;;;;;;;;;;;;;;;5004561;28;19916;-44
2023/04/16 19:50:51;;;;;;;;;;;;;;;;;;5003356;28;19975;-44
2023/04/16 19:53:16;;;;;;;;;;;;;;;;;;5005100;28;19910;-44
2023/04/16 19:55:42;;;;;;;;;;;;;;;;;;5003623;28;20012;-44
2023/04/16 19:58:08;;;;;;;;;;;;;;;;;;5003556;28;19920;-46
2023/04/16 20:00:34;;;;;;;;;;;;;;;;;;5004486;28;19913;-45
2023/04/16 20:03:00;;;;;;;;;;;;;;;;;;5004852;28;20391;-44
2023/04/16 20:05:26;;;;;;;;;;;;;;;;;;5004791;28;19910;-46
2023/04/16 20:07:52;;;;;;;;;;;;;;;;;;5003816;28;19971;-45
2023/04/16 20:10:18;;;;;;;;;;;;;;;;;;4999101;28;20301;-44
2023/04/16 20:12:45;;;;;;;;;;;;;;;;;;4984870;28;19916;-46
2023/04/16 20:15:11;;;;;;;;;;;;;;;;;;4985063;28;19910;-44
2023/04/16 20:17:38;;;;;;;;;;;;;;;;;;4984992;28;19914;-46
2023/04/16 20:20:15;;;;;;;;;;;;;;;;;;4984654;28;19960;-44
2023/04/16 20:22:41;;;;;;;;;;;;;;;;;;4985581;28;19906;-45
2023/04/16 20:25:07;;;;;;;;;;;;;;;;;;4985636;28;20227;-45
2023/04/16 20:27:33;;;;;;;;;;;;;;;;;;4984956;28;19906;-46
2023/04/16 20:29:59;;;;;;;;;;;;;;;;;;4967700;28;20497;-45
2023/04/16 20:32:25;;;;;;;;;;;;;;;;;;4984877;28;19906;-45
2023/04/16 20:34:51;;;;;;;;;;;;;;;;;;4985236;28;19933;-45
2023/04/16 20:37:17;;;;;;;;;;;;;;;;;;4984896;28;19914;-44
2023/04/16 20:39:45;;;;;;;;;;;;;;;;;;4985424;28;20254;-44
2023/04/16 20:42:11;;;;;;;;;;;;;;;;;;4985564;28;20113;-45
2023/04/16 20:44:40;;;;;;;;;;;;;;;;;;4985232;28;19914;-43
2023/04/16 20:47:06;;;;;;;;;;;;;;;;;;4985068;28;20403;-43
2023/04/16 20:49:33;;;;;;;;;;;;;;;;;;4984085;28;20668;-45
2023/04/16 20:51:59;;;;;;;;;;;;;;;;;;4984840;28;20316;-46
2023/04/16 20:54:25;;;;;;;;;;;;;;;;;;4984687;28;19913;-43
2023/04/16 20:56:52;;;;;;;;;;;;;;;;;;4984367;28;19910;-44
2023/04/16 20:59:19;;;;;;;;;;;;;;;;;;4984370;28;19968;-46
2023/04/16 21:01:46;;;;;;;;;;;;;;;;;;4985381;28;19941;-43
2023/04/16 21:04:12;;;;;;;;;;;;;;;;;;4985281;28;20189;-43
2023/04/16 21:06:41;;;;;;;;;;;;;;;;;;4984877;28;20349;-44
2023/04/16 21:09:08;;;;;;;;;;;;;;;;;;4988226;28;20488;-45
2023/04/16 21:11:34;;;;;;;;;;;;;;;;;;4987985;28;19917;-45
2023/04/16 21:14:00;;;;;;;;;;;;;;;;;;4988290;28;19910;-46
2023/04/16 21:16:26;;;;;;;;;;;;;;;;;;4987862;28;19913;-44
2023/04/16 21:18:53;;;;;;;;;;;;;;;;;;4988230;28;20285;-45
2023/04/16 21:21:19;;;;;;;;;;;;;;;;;;4987492;28;19921;-46
2023/04/16 21:23:45;;;;;;;;;;;;;;;;;;4989008;28;19906;-46
2023/04/16 21:26:11;;;;;;;;;;;;;;;;;;4988389;28;19907;-45
2023/04/16 21:28:37;;;;;;;;;;;;;;;;;;4988043;28;20017;-44
2023/04/16 21:31:02;;;;;;;;;;;;;;;;;;4987842;28;20199;-44
2023/04/16 21:33:28;;;;;;;;;;;;;;;;;;4987628;28;19948;-45
2023/04/16 21:35:54;;;;;;;;;;;;;;;;;;4985699;28;19913;-44
2023/04/16 21:38:21;;;;;;;;;;;;;;;;;;4991853;28;19910;-46
2023/04/16 21:40:52;;;;;;;;;;;;;;;;;;4987756;28;20352;-44
2023/04/16 21:43:19;;;;;;;;;;;;;;;;;;4973880;28;19910;-44
2023/04/16 21:45:45;;;;;;;;;;;;;;;;;;4968949;28;20377;-44